Airfield :
LOGIN :

Register | Disclaimer

   EN    FR    IT 

 










Legend :    VFR   Marginal VFR   IFR   Intensive IFR   Very Intensive IFR
Visi :
Ceiling :
>= 8 km
>= 3000ft
5 to 8 km
1000 to 3000 ft
1500m to 5 km
500 to 1000 ft
800 to 1500m
200 to 500 ft
< 800m
< 200 ft
Symbols :   Thunderstorms  Fog  Heavy snow  Heavy precipitations  Wind > 20 kt
SIGMETs :     Misc.  Thunderstorms  Icing  Turbulence  Mountain Waves  Volcanic Ashes






- Airport Elevation : 1 ft


EGCK - Caernarfon

CURRENT METAR :
  • 241150Z 22023KT 8000 BKN004 OVC028 11/09 Q0999

EXPIRED METARs :
  • 241120Z 22022G32KT 6000 OVC006 10/09 Q1000
  • 241050Z 22022G32KT 6000 OVC004 10/09 Q1000
  • 241020Z 21023G33KT 6000 -DZ OVC004 10/09 Q1000
  • 240950Z 21023G33KT 8000 -DZ OVC004 10/09 Q1000
  • 240920Z 22023KT 7000 OVC004 10/09 Q1000
  • 240850Z AUTO 22024G36KT 7000 OVC004/// 10/09 Q1001

TAF TAF EGCK
Valid from the 24 at 12:00 until the 24 at 21:00 UTC


241108Z 2412/2421 23024G37KT 9999 FEW014 SCT020
BECMG 2412/2415 27022G32KT
TEMPO 2412/2414 BKN014
TEMPO 2417/2421 7000 SHRA BKN014



MET'MAP, your aeronautical weather chart ! - Copyright ORBIFLY December 2007 - Disclaimer

ORBIFLY MET'MAP TEAM :

Programming & Development : Alexandra Zaïnal
Concept & original design : Baudouin d'Aumeries
Assistance for programming : Marc-Olivier Méhu
Technical & hardware support : Manuel Goepfert

Contact : metmap@orbifly.com




SOURCES & CREDITS :

   NOAA